Time;durP1;ratioP1;P1;durP2;ratioP2;P2;SDS_P1;SDS_P2;PMS_P1;PMS_P2;Temp;Humidity;BMP_temperature;BMP_pressure;BME280_temperature;BME280_humidity;BME280_pressure;Samples;Min_cycle;Max_cycle;Signal;HPM_P1;HPM_P2
2021/11/19 00:01:20;;;;;;;1.67;0.82;;;12.50;79.10;;;;;;5132624;27;20121;-63
2021/11/19 00:03:46;;;;;;;1.17;0.70;;;12.50;79.00;;;;;;5070745;28;20135;-61
2021/11/19 00:06:13;;;;;;;1.40;0.80;;;12.50;79.10;;;;;;5070476;28;20040;-62
2021/11/19 00:08:40;;;;;;;1.23;0.50;;;12.50;79.10;;;;;;5070655;28;20056;-64
2021/11/19 00:11:10;;;;;;;0.60;0.60;;;12.50;79.00;;;;;;5070878;28;20484;-63
2021/11/19 00:13:36;;;;;;;0.85;0.65;;;12.50;79.10;;;;;;5070793;28;20440;-63
2021/11/19 00:16:02;;;;;;;1.98;0.82;;;12.50;79.10;;;;;;5070810;28;20051;-61
2021/11/19 00:18:27;;;;;;;0.80;0.80;;;12.50;79.10;;;;;;5070313;28;20063;-62
2021/11/19 00:20:54;;;;;;;1.27;0.90;;;12.40;79.00;;;;;;5070064;28;20048;-62
2021/11/19 00:23:20;;;;;;;0.60;0.60;;;12.50;79.00;;;;;;5070803;28;20040;-61
2021/11/19 00:25:47;;;;;;;0.80;0.80;;;12.50;79.10;;;;;;5070661;28;20052;-61
2021/11/19 00:28:13;;;;;;;0.88;0.70;;;12.50;79.00;;;;;;5070720;28;20055;-60
2021/11/19 00:30:39;;;;;;;0.75;0.73;;;12.50;79.00;;;;;;5070165;28;20048;-60
2021/11/19 00:33:07;;;;;;;0.80;0.60;;;12.50;79.00;;;;;;5053312;28;20479;-60
2021/11/19 00:35:36;;;;;;;0.82;0.60;;;12.50;79.10;;;;;;5070678;28;20497;-60
2021/11/19 00:38:03;;;;;;;0.82;0.70;;;12.50;79.00;;;;;;5070079;28;20095;-59
2021/11/19 00:40:37;;;;;;;1.40;0.80;;;12.50;79.00;;;;;;5097581;27;20507;-61
2021/11/19 00:43:03;;;;;;;1.65;0.93;;;12.50;79.00;;;;;;5113392;28;20044;-62
2021/11/19 00:45:30;;;;;;;0.95;0.77;;;12.30;79.00;;;;;;5113199;28;20048;-56
2021/11/19 00:47:57;;;;;;;0.80;0.70;;;12.50;79.00;;;;;;5113367;28;20207;-58
2021/11/19 00:50:27;;;;;;;1.05;0.70;;;12.50;79.00;;;;;;5113069;28;20043;-59
2021/11/19 00:52:53;;;;;;;1.00;0.80;;;12.50;79.00;;;;;;5132780;28;20088;-60
2021/11/19 00:55:20;;;;;;;1.05;0.85;;;12.50;79.00;;;;;;5133959;28;20047;-54
2021/11/19 00:57:46;;;;;;;0.85;0.60;;;12.50;79.00;;;;;;5133667;28;20046;-58
2021/11/19 01:00:17;;;;;;;0.90;0.60;;;12.50;79.00;;;;;;5114871;28;20518;-59
2021/11/19 01:02:43;;;;;;;1.00;0.80;;;12.50;79.00;;;;;;5132145;28;20409;-61
2021/11/19 01:05:09;;;;;;;0.60;0.60;;;12.50;79.70;;;;;;5133528;28;20449;-60
2021/11/19 01:07:35;;;;;;;1.25;1.00;;;12.50;79.10;;;;;;5133716;28;20084;-59
2021/11/19 01:10:10;;;;;;;1.25;1.00;;;12.50;79.10;;;;;;5133364;27;20118;-60
2021/11/19 01:12:36;;;;;;;1.58;1.02;;;12.50;79.00;;;;;;5135932;27;20050;-61
2021/11/19 01:15:12;;;;;;;1.00;0.90;;;12.50;79.00;;;;;;5137722;27;20043;-57
2021/11/19 01:17:52;;;;;;;1.70;0.80;;;12.50;79.00;;;;;;5137567;27;20410;-63
2021/11/19 01:20:22;;;;;;;0.98;0.63;;;12.50;79.00;;;;;;5137589;27;20130;-57
2021/11/19 01:22:50;;;;;;;1.00;0.80;;;12.50;79.00;;;;;;5135927;27;20357;-63
2021/11/19 01:25:19;;;;;;;0.65;0.65;;;12.60;79.10;;;;;;5127993;27;20039;-56
2021/11/19 01:27:46;;;;;;;1.20;0.80;;;12.60;79.10;;;;;;5116902;28;20039;-53
2021/11/19 01:30:20;;;;;;;0.82;0.82;;;12.50;79.00;;;;;;5116805;28;20169;-62
2021/11/19 01:32:46;;;;;;;1.58;0.88;;;12.50;79.10;;;;;;5116947;28;20051;-57
2021/11/19 01:35:12;;;;;;;1.20;0.73;;;12.50;79.00;;;;;;5117918;27;20040;-61
2021/11/19 01:37:39;;;;;;;1.35;1.00;;;12.40;79.00;;;;;;5116858;28;20048;-58
2021/11/19 01:40:07;;;;;;;0.73;0.73;;;12.50;79.00;;;;;;5115689;28;20051;-60
2021/11/19 01:42:38;;;;;;;1.00;0.90;;;12.50;79.00;;;;;;5116636;28;20126;-60
2021/11/19 01:45:16;;;;;;;1.58;0.90;;;12.50;79.00;;;;;;5117474;27;20050;-63
2021/11/19 01:47:46;;;;;;;0.80;0.80;;;12.50;79.10;;;;;;5116427;28;20054;-59
2021/11/19 01:50:25;;;;;;;1.83;1.20;;;12.50;79.10;;;;;;5116403;28;20561;-54
2021/11/19 01:53:00;;;;;;;0.90;0.80;;;12.50;79.00;;;;;;5116485;28;20126;-56
2021/11/19 01:55:33;;;;;;;0.98;0.70;;;12.50;79.00;;;;;;5117180;27;20043;-59
2021/11/19 01:58:07;;;;;;;1.33;0.75;;;12.50;79.00;;;;;;5097642;28;20128;-60
2021/11/19 02:00:32;;;;;;;0.90;0.90;;;12.50;79.10;;;;;;5116367;28;20048;-57
2021/11/19 02:03:00;;;;;;;1.65;0.80;;;12.50;79.10;;;;;;5116108;28;20047;-62
2021/11/19 02:05:42;;;;;;;0.80;0.80;;;12.50;79.10;;;;;;5116971;27;20087;-62
2021/11/19 02:08:14;;;;;;;1.30;0.80;;;12.50;79.10;;;;;;5116192;28;20046;-61
2021/11/19 02:10:43;;;;;;;0.90;0.80;;;12.50;79.10;;;;;;5097681;28;20138;-63
2021/11/19 02:13:44;;;;;;;1.05;0.75;;;12.50;79.10;;;;;;5115543;28;20047;-57
2021/11/19 02:16:15;;;;;;;0.93;0.70;;;12.50;79.00;;;;;;5117046;27;20051;-58
2021/11/19 02:18:59;;;;;;;1.15;0.70;;;12.50;79.10;;;;;;5115744;28;20072;-63
2021/11/19 02:21:31;;;;;;;1.02;0.80;;;12.50;79.00;;;;;;5115515;28;20166;-58
2021/11/19 02:24:26;;;;;;;1.92;1.20;;;12.50;79.10;;;;;;5115316;28;20043;-60
2021/11/19 02:27:04;;;;;;;2.40;1.10;;;12.60;79.10;;;;;;5014534;28;20511;-63
2021/11/19 02:29:35;;;;;;;1.80;0.95;;;12.50;79.10;;;;;;5031426;28;20594;-61
2021/11/19 02:32:06;;;;;;;1.88;0.90;;;12.50;79.10;;;;;;5032827;28;20128;-56
2021/11/19 02:34:32;;;;;;;1.17;0.95;;;12.50;79.10;;;;;;5033074;28;20445;-56
2021/11/19 02:37:07;;;;;;;0.75;0.60;;;12.50;79.10;;;;;;5031875;28;20680;-54
2021/11/19 02:39:37;;;;;;;1.15;0.70;;;12.60;79.10;;;;;;5012971;28;20125;-57
2021/11/19 02:42:15;;;;;;;1.70;0.85;;;12.50;79.10;;;;;;5012854;28;20049;-55
2021/11/19 02:44:42;;;;;;;1.73;0.85;;;12.50;79.10;;;;;;5012300;28;20057;-54
2021/11/19 02:47:12;;;;;;;0.80;0.80;;;12.50;79.10;;;;;;4996416;28;20057;-55
2021/11/19 02:49:40;;;;;;;0.70;0.70;;;12.50;79.10;;;;;;5013832;28;20650;-63
2021/11/19 02:52:09;;;;;;;1.13;0.50;;;12.50;79.10;;;;;;5012695;28;20480;-59
2021/11/19 02:54:35;;;;;;;0.80;0.80;;;12.60;79.10;;;;;;5012745;28;20506;-59
2021/11/19 02:57:05;;;;;;;1.75;0.93;;;12.60;79.10;;;;;;5012593;28;20186;-56
2021/11/19 02:59:31;;;;;;;0.73;0.73;;;12.60;79.10;;;;;;5013063;28;20125;-62
2021/11/19 03:02:03;;;;;;;1.77;0.90;;;12.60;79.50;;;;;;5012551;28;20133;-55
2021/11/19 03:04:52;;;;;;;0.85;0.73;;;12.60;79.20;;;;;;5101789;28;20063;-57
2021/11/19 03:07:18;;;;;;;1.30;1.00;;;12.50;79.00;;;;;;5114861;28;20471;-57
2021/11/19 03:09:48;;;;;;;1.05;0.95;;;12.60;79.10;;;;;;5115902;27;20097;-55
2021/11/19 03:12:17;;;;;;;1.25;0.85;;;12.60;79.20;;;;;;5114800;28;20040;-58
2021/11/19 03:14:46;;;;;;;1.63;0.90;;;12.60;79.20;;;;;;5114776;28;20122;-53
2021/11/19 03:17:13;;;;;;;1.35;0.80;;;12.60;79.10;;;;;;5114467;28;20101;-54
2021/11/19 03:19:39;;;;;;;2.10;0.90;;;12.60;79.20;;;;;;5115282;27;20073;-49
2021/11/19 03:22:07;;;;;;;1.58;1.20;;;12.60;79.20;;;;;;5114590;28;20055;-54
2021/11/19 03:24:34;;;;;;;0.93;0.80;;;12.60;79.20;;;;;;5114571;28;20064;-58
2021/11/19 03:27:00;;;;;;;0.98;0.70;;;12.60;79.20;;;;;;5114494;28;20450;-62
2021/11/19 03:29:26;;;;;;;1.10;0.85;;;12.60;79.20;;;;;;5114331;28;20062;-64
2021/11/19 03:31:53;;;;;;;0.85;0.70;;;12.60;79.20;;;;;;5114998;27;20043;-57
2021/11/19 03:34:20;;;;;;;1.13;0.80;;;12.60;79.20;;;;;;5114113;28;20048;-62
2021/11/19 03:36:49;;;;;;;0.95;0.77;;;12.60;79.20;;;;;;5114437;28;20050;-57
2021/11/19 03:39:17;;;;;;;1.13;0.75;;;12.50;79.10;;;;;;5114277;28;20118;-57
2021/11/19 03:41:45;;;;;;;1.67;1.10;;;12.60;79.20;;;;;;5115450;27;20050;-59
2021/11/19 03:44:33;;;;;;;1.63;1.27;;;12.60;79.20;;;;;;5113967;28;20051;-58
2021/11/19 03:47:19;;;;;;;1.77;0.90;;;12.60;79.20;;;;;;5113723;28;20055;-53
2021/11/19 03:49:47;;;;;;;1.30;1.02;;;12.60;79.10;;;;;;5114102;28;20556;-56
2021/11/19 03:52:21;;;;;;;1.40;1.00;;;12.50;79.10;;;;;;5114993;27;20039;-59
2021/11/19 03:54:49;;;;;;;0.80;0.73;;;12.60;79.20;;;;;;5113749;28;20044;-57
2021/11/19 03:57:17;;;;;;;0.93;0.80;;;12.60;79.20;;;;;;5113861;28;20048;-54
2021/11/19 03:59:43;;;;;;;1.25;1.00;;;12.60;79.20;;;;;;5113935;28;20057;-54
2021/11/19 04:02:10;;;;;;;0.93;0.90;;;12.60;79.20;;;;;;5114938;27;20070;-58
2021/11/19 04:04:38;;;;;;;0.77;0.77;;;12.60;79.20;;;;;;5113447;28;20039;-56
2021/11/19 04:07:06;;;;;;;1.35;0.73;;;12.60;79.20;;;;;;5113715;28;20399;-60
2021/11/19 04:09:32;;;;;;;1.25;0.90;;;12.60;79.20;;;;;;5113804;28;20046;-62
2021/11/19 04:12:00;;;;;;;1.40;0.95;;;12.60;79.20;;;;;;5113643;28;20479;-60
2021/11/19 04:14:26;;;;;;;1.63;0.90;;;12.50;79.10;;;;;;5114692;27;20070;-60
2021/11/19 04:16:54;;;;;;;1.33;1.20;;;12.70;79.20;;;;;;5113544;28;20503;-59
2021/11/19 04:19:22;;;;;;;0.70;0.70;;;12.60;79.20;;;;;;5093996;28;20063;-59
2021/11/19 04:21:50;;;;;;;1.10;0.90;;;12.60;79.20;;;;;;5113748;28;20043;-60
2021/11/19 04:24:27;;;;;;;1.17;1.08;;;12.60;79.20;;;;;;5114615;28;20388;-58
2021/11/19 04:26:53;;;;;;;1.15;0.93;;;12.60;79.10;;;;;;5113690;28;20039;-56
2021/11/19 04:29:19;;;;;;;1.20;0.90;;;12.60;79.20;;;;;;5113762;28;20399;-62
2021/11/19 04:31:45;;;;;;;0.77;0.70;;;12.60;79.20;;;;;;5113564;28;20035;-53
2021/11/19 04:34:12;;;;;;;1.42;0.90;;;12.60;79.20;;;;;;5114474;27;20082;-50
2021/11/19 04:36:38;;;;;;;1.42;1.10;;;12.60;79.20;;;;;;5113410;28;20039;-56
2021/11/19 04:39:06;;;;;;;1.10;0.82;;;12.60;79.20;;;;;;5113460;28;20122;-58
2021/11/19 04:41:32;;;;;;;1.00;0.73;;;12.70;79.20;;;;;;5113359;28;20083;-63
2021/11/19 04:43:59;;;;;;;1.10;1.00;;;12.60;79.20;;;;;;5113460;28;20044;-58
2021/11/19 04:46:25;;;;;;;1.20;1.10;;;12.60;79.90;;;;;;5113690;28;20403;-63
2021/11/19 04:48:51;;;;;;;1.45;1.00;;;12.60;79.20;;;;;;5113285;28;20044;-59
2021/11/19 04:51:26;;;;;;;2.78;1.10;;;12.60;79.20;;;;;;5112952;28;20157;-54
2021/11/19 04:53:52;;;;;;;2.10;1.13;;;12.60;79.20;;;;;;5112984;28;20054;-58
2021/11/19 04:56:19;;;;;;;1.45;1.33;;;12.60;79.20;;;;;;5114456;28;20364;-58
2021/11/19 04:58:46;;;;;;;1.55;1.23;;;12.60;79.20;;;;;;5112458;28;20105;-57
2021/11/19 05:01:25;;;;;;;1.73;1.30;;;12.60;79.20;;;;;;5112951;28;20399;-56
2021/11/19 05:03:51;;;;;;;1.38;0.90;;;12.60;79.20;;;;;;5113076;28;20040;-56
2021/11/19 05:06:17;;;;;;;1.50;0.95;;;12.60;79.90;;;;;;5113563;28;20032;-62
2021/11/19 05:08:43;;;;;;;1.13;1.02;;;12.60;79.20;;;;;;5112897;28;20122;-60
2021/11/19 05:11:13;;;;;;;2.13;1.13;;;12.60;79.20;;;;;;5113285;28;20035;-59
2021/11/19 05:13:39;;;;;;;1.02;1.00;;;12.60;79.20;;;;;;5112867;28;20090;-64
2021/11/19 05:16:09;;;;;;;1.65;1.10;;;12.60;79.20;;;;;;5113048;28;20039;-58
2021/11/19 05:18:36;;;;;;;1.63;1.05;;;12.70;79.30;;;;;;5095565;28;20051;-64
2021/11/19 05:21:03;;;;;;;1.00;1.00;;;12.60;79.30;;;;;;5112775;28;20066;-63
2021/11/19 05:23:29;;;;;;;1.30;1.20;;;12.60;79.20;;;;;;5112615;28;20040;-59
2021/11/19 05:25:56;;;;;;;1.30;1.20;;;12.60;79.30;;;;;;5112893;28;20431;-63
2021/11/19 05:28:23;;;;;;;1.23;1.08;;;12.60;79.20;;;;;;5114052;28;20085;-63
2021/11/19 05:30:49;;;;;;;2.47;1.50;;;12.60;79.20;;;;;;5113078;28;20122;-61
2021/11/19 05:33:18;;;;;;;1.42;0.93;;;12.60;79.20;;;;;;5112824;28;20476;-62
2021/11/19 05:35:45;;;;;;;1.90;1.40;;;12.60;79.40;;;;;;5112553;28;20498;-64
2021/11/19 05:38:11;;;;;;;2.40;1.33;;;12.60;79.30;;;;;;5113526;28;20163;-64
2021/11/19 05:40:37;;;;;;;1.90;1.20;;;12.60;79.20;;;;;;5112505;28;20476;-63
2021/11/19 05:43:04;;;;;;;1.90;1.10;;;12.60;79.20;;;;;;5112675;28;20043;-61
2021/11/19 05:45:31;;;;;;;1.40;1.13;;;12.60;79.30;;;;;;5094484;28;20083;-64
2021/11/19 05:47:57;;;;;;;2.28;1.20;;;12.60;79.30;;;;;;5112644;28;20054;-61
2021/11/19 05:50:26;;;;;;;2.05;1.20;;;12.70;79.30;;;;;;5113617;28;20152;-64
2021/11/19 05:52:57;;;;;;;1.88;1.10;;;12.60;79.30;;;;;;5112731;28;20050;-58
2021/11/19 05:55:25;;;;;;;1.38;1.20;;;12.60;79.30;;;;;;5112127;28;20051;-50
2021/11/19 05:57:50;;;;;;;1.15;1.05;;;12.60;79.30;;;;;;5115227;28;20050;-53
2021/11/19 06:00:33;;;;;;;1.20;1.10;;;12.60;79.30;;;;;;5124307;27;20046;-58
2021/11/19 06:02:59;;;;;;;1.05;0.95;;;12.60;79.30;;;;;;5136980;27;20120;-62
2021/11/19 06:05:25;;;;;;;1.73;1.30;;;12.70;79.30;;;;;;5118551;27;20035;-63
2021/11/19 06:07:51;;;;;;;1.88;1.48;;;12.60;79.30;;;;;;5136544;27;20556;-64
2021/11/19 06:10:19;;;;;;;1.92;1.27;;;12.60;79.30;;;;;;5134412;27;20050;-56
2021/11/19 06:12:52;;;;;;;1.67;1.10;;;12.60;79.30;;;;;;5136407;27;20039;-61
2021/11/19 06:15:31;;;;;;;1.80;1.10;;;12.60;79.30;;;;;;5118069;27;20479;-64
2021/11/19 06:18:05;;;;;;;1.80;1.23;;;12.60;79.20;;;;;;5136003;27;20053;-58
2021/11/19 06:20:41;;;;;;;2.08;1.20;;;12.70;79.40;;;;;;5135096;27;20476;-56
2021/11/19 06:23:11;;;;;;;1.55;1.15;;;12.60;79.30;;;;;;5097678;28;20553;-59
2021/11/19 06:25:39;;;;;;;1.30;1.10;;;12.60;79.30;;;;;;5115479;28;20071;-61
2021/11/19 06:28:10;;;;;;;1.85;1.50;;;12.60;79.30;;;;;;5115567;28;20044;-63
2021/11/19 06:30:36;;;;;;;2.05;1.27;;;12.60;79.30;;;;;;5097399;28;20039;-57
2021/11/19 06:33:03;;;;;;;1.75;1.00;;;12.60;79.30;;;;;;5116710;27;20093;-62
2021/11/19 06:35:29;;;;;;;2.33;1.23;;;12.60;79.30;;;;;;5115905;28;20163;-55
2021/11/19 06:37:55;;;;;;;1.50;1.20;;;12.60;79.30;;;;;;5115268;28;20036;-60
2021/11/19 06:40:26;;;;;;;2.97;1.30;;;12.60;79.30;;;;;;5114353;28;20112;-57
2021/11/19 06:42:53;;;;;;;1.35;1.20;;;12.60;79.30;;;;;;5115974;27;20396;-59
2021/11/19 06:45:19;;;;;;;2.03;1.13;;;12.70;79.40;;;;;;5115106;28;20055;-60
2021/11/19 06:47:46;;;;;;;1.98;1.50;;;12.70;79.40;;;;;;5096974;28;20051;-63
2021/11/19 06:50:15;;;;;;;1.38;1.10;;;12.60;79.40;;;;;;5115392;28;20043;-53
2021/11/19 06:52:41;;;;;;;1.95;1.10;;;12.70;79.40;;;;;;5097996;27;20451;-57
2021/11/19 06:55:08;;;;;;;1.65;1.20;;;12.70;79.40;;;;;;5115335;28;20043;-63
2021/11/19 06:57:35;;;;;;;1.48;1.17;;;12.70;79.40;;;;;;5114635;28;20487;-56
2021/11/19 07:00:00;;;;;;;1.42;1.00;;;12.70;79.40;;;;;;5096192;28;20062;-65
2021/11/19 07:02:26;;;;;;;1.20;1.10;;;12.60;79.40;;;;;;5114801;28;20122;-60
2021/11/19 07:04:52;;;;;;;1.65;1.00;;;12.70;79.40;;;;;;5115888;27;20062;-63
2021/11/19 07:07:18;;;;;;;1.77;1.17;;;12.70;79.40;;;;;;5114388;28;20051;-48
2021/11/19 07:09:45;;;;;;;1.60;1.05;;;12.70;79.40;;;;;;5113724;28;20458;-52
2021/11/19 07:12:13;;;;;;;1.23;1.10;;;12.60;79.40;;;;;;5113974;28;20051;-52
2021/11/19 07:14:40;;;;;;;1.40;1.10;;;12.70;79.40;;;;;;5114798;27;20054;-64
2021/11/19 07:17:07;;;;;;;1.65;1.25;;;12.70;79.40;;;;;;5132373;27;20411;-52
2021/11/19 07:19:35;;;;;;;0.95;0.85;;;12.70;79.40;;;;;;5134232;27;20059;-52
2021/11/19 07:22:01;;;;;;;1.27;0.77;;;12.70;79.40;;;;;;5135241;27;20039;-51
2021/11/19 07:24:28;;;;;;;1.17;0.90;;;12.70;79.40;;;;;;5133653;27;20067;-48
2021/11/19 07:26:55;;;;;;;1.27;1.00;;;12.70;79.40;;;;;;5135384;27;20058;-53
2021/11/19 07:29:21;;;;;;;1.85;1.25;;;12.70;79.40;;;;;;5134927;27;20118;-53
2021/11/19 07:31:47;;;;;;;1.55;1.27;;;12.70;79.40;;;;;;5134727;27;20517;-51
2021/11/19 07:34:13;;;;;;;1.13;1.10;;;12.70;79.40;;;;;;5134839;27;20043;-49
2021/11/19 07:36:39;;;;;;;2.30;1.13;;;12.70;79.40;;;;;;5133080;27;20457;-55
2021/11/19 07:39:07;;;;;;;1.15;0.65;;;12.70;79.40;;;;;;5135230;27;20039;-54
2021/11/19 07:41:33;;;;;;;2.05;1.50;;;12.60;79.40;;;;;;5116251;27;20046;-51
2021/11/19 07:43:59;;;;;;;1.65;1.00;;;12.70;79.40;;;;;;5134829;27;20035;-55
2021/11/19 07:46:28;;;;;;;1.70;1.15;;;12.70;79.40;;;;;;5132385;27;20096;-52
2021/11/19 07:48:58;;;;;;;1.30;0.90;;;12.70;79.40;;;;;;5098964;28;20047;-51
2021/11/19 07:51:28;;;;;;;2.60;1.15;;;12.70;79.40;;;;;;5134661;27;20051;-52
2021/11/19 07:53:55;;;;;;;1.48;1.13;;;12.70;79.40;;;;;;5116378;27;20065;-52
2021/11/19 07:56:29;;;;;;;0.90;0.80;;;12.70;79.40;;;;;;5133000;27;20043;-50
2021/11/19 07:59:15;;;;;;;1.85;1.00;;;12.70;79.40;;;;;;5115763;27;20055;-51
2021/11/19 08:01:42;;;;;;;1.58;1.08;;;12.70;79.40;;;;;;5132185;27;20051;-52
2021/11/19 08:04:08;;;;;;;2.13;0.80;;;12.70;80.10;;;;;;5113765;28;20036;-50
2021/11/19 08:06:34;;;;;;;0.90;0.90;;;12.70;79.40;;;;;;5113784;28;20044;-57
2021/11/19 08:09:01;;;;;;;0.98;0.82;;;12.70;79.40;;;;;;5114122;28;20035;-51
2021/11/19 08:11:27;;;;;;;1.13;1.00;;;12.70;79.40;;;;;;5113724;28;20047;-51
2021/11/19 08:13:53;;;;;;;1.80;0.90;;;12.70;79.40;;;;;;5114842;27;20036;-50
2021/11/19 08:16:20;;;;;;;0.90;0.90;;;12.70;80.00;;;;;;5113667;28;20050;-50
2021/11/19 08:18:49;;;;;;;1.38;1.02;;;12.70;79.40;;;;;;5094806;28;20059;-55
2021/11/19 08:21:15;;;;;;;2.10;1.13;;;12.70;79.60;;;;;;5095447;27;20414;-63
2021/11/19 08:23:46;;;;;;;1.67;1.08;;;12.70;79.40;;;;;;5113637;28;20061;-62
2021/11/19 08:26:23;;;;;;;0.93;0.85;;;12.70;79.40;;;;;;5113506;28;20050;-64
2021/11/19 08:28:50;;;;;;;1.77;0.75;;;12.70;79.40;;;;;;5113667;28;20130;-54
2021/11/19 08:31:19;;;;;;;1.42;1.00;;;12.70;79.40;;;;;;5113586;28;20089;-52
2021/11/19 08:33:45;;;;;;;1.48;1.00;;;12.70;79.40;;;;;;5114176;27;20093;-52
2021/11/19 08:36:12;;;;;;;1.20;1.00;;;12.80;79.50;;;;;;5113762;28;20400;-54
2021/11/19 08:38:42;;;;;;;0.60;0.60;;;12.80;79.50;;;;;;5113460;28;20039;-52
2021/11/19 08:41:08;;;;;;;1.92;1.05;;;12.70;79.40;;;;;;5113219;28;20047;-53
2021/11/19 08:43:37;;;;;;;1.02;0.77;;;12.70;79.40;;;;;;5114307;27;20043;-52
2021/11/19 08:46:05;;;;;;;1.45;0.90;;;12.70;79.40;;;;;;5113450;28;20073;-63
2021/11/19 08:48:34;;;;;;;1.42;1.00;;;12.70;79.40;;;;;;5112943;28;20043;-55
2021/11/19 08:51:02;;;;;;;1.10;1.00;;;12.70;79.40;;;;;;5112944;28;20043;-59
2021/11/19 08:53:28;;;;;;;0.85;0.85;;;12.70;79.50;;;;;;5114531;28;20047;-53
2021/11/19 08:55:56;;;;;;;1.08;0.80;;;12.70;79.40;;;;;;5113051;28;20094;-55
2021/11/19 08:58:27;;;;;;;1.40;0.80;;;12.70;79.40;;;;;;5113217;28;20044;-53
2021/11/19 09:00:56;;;;;;;0.80;0.80;;;12.70;79.40;;;;;;5113200;28;20082;-56
2021/11/19 09:03:23;;;;;;;1.85;0.90;;;12.70;79.40;;;;;;5113472;28;20035;-55
2021/11/19 09:05:50;;;;;;;1.30;1.10;;;12.80;79.50;;;;;;5113102;28;20104;-60
2021/11/19 09:08:19;;;;;;;0.80;0.80;;;12.70;79.40;;;;;;5113134;28;20442;-49
2021/11/19 09:10:47;;;;;;;1.20;0.70;;;12.70;79.40;;;;;;5113036;28;20507;-52
2021/11/19 09:13:13;;;;;;;0.70;0.70;;;12.70;79.50;;;;;;5094628;28;20461;-50
2021/11/19 09:15:40;;;;;;;0.90;0.85;;;12.70;79.40;;;;;;5114274;28;20392;-52
2021/11/19 09:18:17;;;;;;;0.98;0.82;;;12.70;79.40;;;;;;5113018;28;20124;-52
2021/11/19 09:21:03;;;;;;;2.08;1.05;;;12.70;79.40;;;;;;5094188;28;20047;-54
2021/11/19 09:23:34;;;;;;;1.20;0.88;;;12.70;79.40;;;;;;5112904;28;20050;-54
2021/11/19 09:26:10;;;;;;;0.98;0.90;;;12.70;79.40;;;;;;5114023;28;20044;-64
2021/11/19 09:28:39;;;;;;;1.20;0.73;;;12.70;79.40;;;;;;5094643;28;20545;-65
2021/11/19 09:31:07;;;;;;;0.80;0.80;;;12.70;79.40;;;;;;5094587;28;20052;-51
2021/11/19 09:33:34;;;;;;;1.77;1.00;;;12.70;79.40;;;;;;5116793;28;20134;-54
2021/11/19 09:36:00;;;;;;;1.98;1.02;;;12.70;79.40;;;;;;5099271;28;20645;-56
2021/11/19 09:38:27;;;;;;;0.80;0.80;;;12.70;79.40;;;;;;5116668;28;20105;-48
2021/11/19 09:41:17;;;;;;;1.02;0.88;;;12.70;79.40;;;;;;5116590;28;20445;-55
2021/11/19 09:43:46;;;;;;;1.05;0.80;;;12.70;79.40;;;;;;5116614;28;20046;-58
2021/11/19 09:47:00;;;;;;;0.82;0.77;;;12.70;79.40;;;;;;5117536;27;20052;-57
2021/11/19 09:49:38;;;;;;;1.00;1.00;;;12.70;79.40;;;;;;5116738;28;20400;-53
2021/11/19 09:52:43;;;;;;;1.13;1.02;;;12.70;79.40;;;;;;5116213;28;20047;-59
2021/11/19 09:55:09;;;;;;;1.00;0.95;;;12.80;79.50;;;;;;5116425;28;20127;-65
2021/11/19 09:58:12;;;;;;;1.65;0.90;;;12.80;79.50;;;;;;5117637;27;20093;-65
2021/11/19 10:00:41;;;;;;;1.27;0.80;;;12.80;79.40;;;;;;5116628;28;20127;-65
2021/11/19 10:03:25;;;;;;;1.05;0.80;;;12.70;79.50;;;;;;5116343;28;20047;-56
2021/11/19 10:06:03;;;;;;;0.88;0.73;;;12.70;79.50;;;;;;5116230;28;20067;-60
2021/11/19 10:08:44;;;;;;;0.60;0.60;;;12.70;79.40;;;;;;5098188;28;20501;-64
2021/11/19 10:11:31;;;;;;;1.77;1.00;;;12.80;79.50;;;;;;5116056;28;20053;-63
2021/11/19 10:14:10;;;;;;;1.17;0.90;;;12.70;79.50;;;;;;5118883;27;20535;-58
2021/11/19 10:17:03;;;;;;;0.98;0.88;;;12.70;79.50;;;;;;5130516;27;20043;-59
2021/11/19 10:19:49;;;;;;;0.60;0.60;;;12.80;79.60;;;;;;5136873;27;20058;-47
2021/11/19 10:22:24;;;;;;;0.80;0.70;;;12.70;79.50;;;;;;5135452;27;20047;-55
2021/11/19 10:25:08;;;;;;;0.88;0.88;;;12.80;79.60;;;;;;5132327;27;20062;-55
2021/11/19 10:27:38;;;;;;;1.20;0.80;;;12.70;79.50;;;;;;5132042;27;20103;-56
2021/11/19 10:30:10;;;;;;;0.70;0.70;;;12.80;79.60;;;;;;5131771;27;20088;-54
2021/11/19 10:32:39;;;;;;;0.98;0.90;;;12.70;79.50;;;;;;5132182;27;20047;-56
2021/11/19 10:35:50;;;;;;;0.90;0.80;;;12.80;79.60;;;;;;5131741;27;20047;-61
2021/11/19 10:38:44;;;;;;;2.08;0.93;;;12.80;79.60;;;;;;5131685;27;20061;-55
2021/11/19 10:41:40;;;;;;;0.93;0.70;;;12.80;79.60;;;;;;5131123;27;20051;-51
2021/11/19 10:44:31;;;;;;;1.25;0.98;;;12.80;79.50;;;;;;5130670;27;20061;-51
2021/11/19 10:47:14;;;;;;;1.17;0.90;;;12.70;79.50;;;;;;5113336;27;20055;-53
2021/11/19 10:50:08;;;;;;;1.48;0.80;;;12.80;79.60;;;;;;5113108;27;20414;-55
2021/11/19 10:52:40;;;;;;;1.08;0.80;;;12.80;79.60;;;;;;5131461;27;20568;-52
2021/11/19 10:55:27;;;;;;;1.00;0.90;;;12.80;79.60;;;;;;5131947;27;20106;-52
2021/11/19 10:57:53;;;;;;;0.80;0.80;;;12.80;79.60;;;;;;5132006;27;20150;-49
2021/11/19 11:00:56;;;;;;;1.42;0.98;;;12.70;79.50;;;;;;5131814;27;20189;-54
2021/11/19 11:03:25;;;;;;;0.80;0.70;;;12.80;79.50;;;;;;5134996;27;20035;-47
2021/11/19 11:06:03;;;;;;;0.70;0.70;;;12.80;79.60;;;;;;5111962;27;20138;-50
2021/11/19 11:08:32;;;;;;;0.65;0.65;;;12.80;79.60;;;;;;5138873;27;20368;-61
2021/11/19 11:11:12;;;;;;;1.20;0.75;;;12.80;79.60;;;;;;5130714;27;20057;-62
2021/11/19 11:13:40;;;;;;;0.77;0.77;;;12.80;79.80;;;;;;5131191;27;20590;-59
2021/11/19 11:16:24;;;;;;;0.75;0.70;;;12.80;79.50;;;;;;5131222;27;20047;-61
2021/11/19 11:19:10;;;;;;;0.98;0.60;;;12.80;79.50;;;;;;5106887;27;20056;-60
2021/11/19 11:21:41;;;;;;;0.90;0.60;;;12.80;79.50;;;;;;5119395;27;20515;-61
2021/11/19 11:24:09;;;;;;;1.08;0.90;;;12.80;79.50;;;;;;5131166;27;20402;-57
2021/11/19 11:26:42;;;;;;;1.25;0.90;;;12.80;79.50;;;;;;5130581;27;20571;-53
2021/11/19 11:29:07;;;;;;;1.02;0.80;;;12.80;79.50;;;;;;5130525;27;20126;-56
2021/11/19 11:32:02;;;;;;;1.13;0.70;;;12.90;79.60;;;;;;5130742;27;20127;-56
2021/11/19 11:35:02;;;;;;;1.58;0.80;;;12.80;79.50;;;;;;5130663;27;20128;-57
2021/11/19 11:38:07;;;;;;;0.80;0.70;;;12.80;79.40;;;;;;5130359;27;20074;-59
2021/11/19 11:41:06;;;;;;;1.48;0.80;;;12.80;79.50;;;;;;5132339;27;20126;-54
2021/11/19 11:43:42;;;;;;;0.80;0.80;;;12.80;79.50;;;;;;5098333;27;20055;-58
2021/11/19 11:46:36;;;;;;;0.85;0.80;;;12.80;79.50;;;;;;5134093;27;20491;-59
2021/11/19 11:49:27;;;;;;;1.20;0.82;;;12.80;79.40;;;;;;5133802;27;20881;-46
2021/11/19 11:52:21;;;;;;;1.38;0.88;;;12.80;79.50;;;;;;5133949;27;20047;-51
2021/11/19 11:54:59;;;;;;;0.80;0.80;;;12.80;79.50;;;;;;5115621;27;20152;-53
2021/11/19 11:57:43;;;;;;;0.90;0.90;;;12.80;79.40;;;;;;5134382;27;20051;-52
2021/11/19 12:00:42;;;;;;;1.67;0.85;;;12.90;79.40;;;;;;5134106;27;20050;-51
2021/11/19 12:03:36;;;;;;;0.68;0.60;;;12.90;79.50;;;;;;5134708;27;20133;-52
2021/11/19 12:06:06;;;;;;;0.95;0.65;;;12.80;79.40;;;;;;5134449;27;20050;-52
2021/11/19 12:08:53;;;;;;;0.73;0.70;;;12.80;79.40;;;;;;5134422;27;20089;-56
2021/11/19 12:11:28;;;;;;;1.52;0.85;;;12.90;79.50;;;;;;5115811;27;20109;-60
2021/11/19 12:14:17;;;;;;;1.73;0.80;;;12.80;79.40;;;;;;5134247;27;20042;-62
2021/11/19 12:16:53;;;;;;;0.85;0.70;;;12.80;79.40;;;;;;5134273;27;20058;-60
2021/11/19 12:19:44;;;;;;;1.33;0.90;;;12.90;79.50;;;;;;5123205;27;20052;-58
2021/11/19 12:22:19;;;;;;;0.95;0.93;;;12.90;79.40;;;;;;5100098;28;20055;-52
2021/11/19 12:25:00;;;;;;;1.03;0.73;;;12.90;79.50;;;;;;5131190;27;20039;-57
2021/11/19 12:27:38;;;;;;;1.52;0.77;;;12.90;79.50;;;;;;5134266;27;20511;-59
2021/11/19 12:30:42;;;;;;;1.63;1.02;;;12.90;79.40;;;;;;5115247;27;20099;-59
2021/11/19 12:33:24;;;;;;;1.05;0.95;;;12.90;79.40;;;;;;5133831;27;20547;-60
2021/11/19 12:36:05;;;;;;;1.00;0.80;;;12.90;79.50;;;;;;5115424;28;20088;-57
2021/11/19 12:38:37;;;;;;;1.00;0.80;;;12.90;79.40;;;;;;5133319;27;20042;-61
2021/11/19 12:41:16;;;;;;;1.10;1.00;;;12.90;79.40;;;;;;5113241;27;20043;-59
2021/11/19 12:43:50;;;;;;;0.80;0.75;;;12.90;79.50;;;;;;5133109;27;20117;-62
2021/11/19 12:46:40;;;;;;;1.50;1.00;;;12.90;79.40;;;;;;5132983;28;20078;-60
2021/11/19 12:49:24;;;;;;;1.25;0.90;;;12.90;79.40;;;;;;5131860;28;20542;-62
2021/11/19 12:52:04;;;;;;;0.98;0.88;;;12.90;79.40;;;;;;5129881;28;20075;-55
2021/11/19 12:54:56;;;;;;;1.90;1.00;;;12.90;79.40;;;;;;5133228;28;20076;-62
2021/11/19 12:57:37;;;;;;;8.63;1.80;;;12.90;79.40;;;;;;5132232;28;20039;-58
2021/11/19 13:00:04;;;;;;;3.33;1.33;;;12.90;80.30;;;;;;5133507;28;20082;-60
2021/11/19 13:02:45;;;;;;;3.47;1.20;;;12.90;80.00;;;;;;5095460;28;20047;-60
2021/11/19 13:05:17;;;;;;;2.63;1.30;;;13.00;79.90;;;;;;5112968;28;20490;-61
2021/11/19 13:07:43;;;;;;;3.80;1.63;;;13.00;79.90;;;;;;5115828;28;20075;-61
2021/11/19 13:10:15;;;;;;;5.65;1.58;;;12.90;79.80;;;;;;5117338;28;20051;-60
2021/11/19 13:13:02;;;;;;;3.03;1.30;;;13.00;79.80;;;;;;5117986;27;20059;-61
2021/11/19 13:15:59;;;;;;;4.35;1.80;;;13.00;79.70;;;;;;5117241;28;20047;-58